Time;durP1;ratioP1;P1;durP2;ratioP2;P2;SDS_P1;SDS_P2;PMS_P1;PMS_P2;Temp;Humidity;BMP_temperature;BMP_pressure;BME280_temperature;BME280_humidity;BME280_pressure;Samples;Min_cycle;Max_cycle;Signal;HPM_P1;HPM_P2
2022/09/20 00:02:16;;;;;;;2.33;1.73;;;;;;;10.73;63.51;97738.00;4930191;28;20207;-77
2022/09/20 00:04:41;;;;;;;4.13;1.35;;;;;;;10.70;63.90;97744.47;4931997;28;20198;-77
2022/09/20 00:07:07;;;;;;;4.05;1.20;;;;;;;10.48;64.53;97745.06;4953466;28;20156;-77
2022/09/20 00:09:32;;;;;;;4.75;1.50;;;;;;;10.46;64.69;97751.53;4950040;28;20328;-77
2022/09/20 00:11:58;;;;;;;2.75;1.42;;;;;;;10.49;64.88;97748.47;4946932;28;20273;-77
2022/09/20 00:14:24;;;;;;;5.43;1.80;;;;;;;10.46;64.77;97741.13;4952857;28;20257;-77
2022/09/20 00:16:49;;;;;;;2.53;1.40;;;;;;;10.48;64.70;97752.09;4947500;28;20165;-77
2022/09/20 00:19:20;;;;;;;5.05;1.85;;;;;;;10.37;64.72;97752.91;4949400;28;20294;-77
2022/09/20 00:21:45;;;;;;;2.05;1.55;;;;;;;10.41;65.03;97751.44;4930117;28;20650;-77
2022/09/20 00:24:10;;;;;;;3.40;1.70;;;;;;;10.39;64.92;97743.06;4948628;28;20207;-77
2022/09/20 00:26:36;;;;;;;3.20;1.25;;;;;;;10.38;64.83;97741.47;4917328;28;20270;-77
2022/09/20 00:29:02;;;;;;;1.83;0.90;;;;;;;10.39;64.95;97748.28;4932483;28;20211;-77
2022/09/20 00:31:28;;;;;;;2.00;1.10;;;;;;;10.40;64.74;97742.03;4948742;28;20190;-77
2022/09/20 00:36:38;;;;;;;2.90;1.20;;;;;;;10.22;65.06;97742.94;4939345;28;20094;-77
2022/09/20 00:39:04;;;;;;;2.50;1.75;;;;;;;10.06;65.06;97747.81;4944850;28;20686;-77
2022/09/20 00:41:30;;;;;;;2.33;0.90;;;;;;;10.15;65.20;97756.06;4914716;28;20245;-77
2022/09/20 00:43:56;;;;;;;2.60;1.40;;;;;;;10.16;66.21;97743.84;4956064;28;20175;-77
2022/09/20 00:46:43;;;;;;;3.30;1.15;;;;;;;10.11;65.14;97747.91;4935308;28;20246;-77
2022/09/20 00:49:17;;;;;;;3.67;1.30;;;;;;;10.05;65.60;97750.63;4947774;28;20277;-77
2022/09/20 00:51:46;;;;;;;2.63;1.25;;;;;;;9.99;65.19;97754.13;4940479;28;20240;-77
2022/09/20 00:54:13;;;;;;;5.72;1.98;;;;;;;10.06;65.35;97747.03;4945993;28;20281;-77
2022/09/20 00:56:42;;;;;;;1.90;0.93;;;;;;;10.02;66.05;97748.47;4936601;28;20193;-77
2022/09/20 00:59:20;;;;;;;2.40;1.23;;;;;;;9.99;65.50;97747.13;4935087;28;20153;-77
2022/09/20 01:01:48;;;;;;;3.15;1.20;;;;;;;10.09;65.17;97743.94;4932752;28;20211;-77
2022/09/20 01:04:14;;;;;;;1.50;1.20;;;;;;;10.05;65.72;97737.63;4918252;28;20227;-77
2022/09/20 01:06:41;;;;;;;4.82;1.40;;;;;;;10.07;65.87;97746.00;4942025;28;20272;-77
2022/09/20 01:09:06;;;;;;;2.50;1.33;;;;;;;10.07;65.86;97735.59;4959040;28;20175;-77
2022/09/20 01:11:33;;;;;;;3.75;1.70;;;;;;;10.05;66.15;97743.59;4954350;28;20301;-77
2022/09/20 01:13:58;;;;;;;2.95;1.20;;;;;;;9.93;65.74;97746.19;4935967;28;20194;-76
2022/09/20 01:16:25;;;;;;;1.55;1.00;;;;;;;10.02;65.61;97743.28;4945611;28;20211;-77
2022/09/20 01:18:50;;;;;;;3.28;1.10;;;;;;;10.07;66.07;97740.78;4951603;28;20212;-77
2022/09/20 01:21:17;;;;;;;2.05;1.13;;;;;;;10.04;65.80;97738.63;4958575;28;20258;-77
2022/09/20 01:24:01;;;;;;;1.77;1.00;;;;;;;9.94;65.80;97734.78;4912651;28;20216;-77
2022/09/20 01:27:20;;;;;;;2.42;1.20;;;;;;;9.84;66.03;97737.16;4931691;28;20203;-77
2022/09/20 01:30:01;;;;;;;1.92;1.13;;;;;;;9.87;65.75;97743.72;4915202;28;20451;-78
2022/09/20 01:32:34;;;;;;;1.25;0.90;;;;;;;9.88;65.65;97740.88;4917228;28;20687;-78
2022/09/20 01:35:00;;;;;;;1.38;0.80;;;;;;;10.02;65.16;97743.28;4881954;28;20728;-78
2022/09/20 01:37:38;;;;;;;2.60;1.60;;;;;;;9.85;65.00;97737.94;4897645;28;20180;-78
2022/09/20 01:40:27;;;;;;;1.20;0.80;;;;;;;9.92;64.84;97739.44;4901183;28;20372;-78
2022/09/20 01:43:07;;;;;;;2.08;1.00;;;;;;;9.77;65.42;97744.28;4885365;28;20120;-78
2022/09/20 01:45:32;;;;;;;1.65;1.05;;;;;;;9.89;65.61;97737.28;4892104;28;20235;-78
2022/09/20 01:48:14;;;;;;;4.18;1.20;;;;;;;9.72;64.70;97744.94;4897604;28;20274;-78
2022/09/20 01:50:49;;;;;;;2.33;0.80;;;;;;;9.91;64.68;97743.03;4886925;28;20218;-78
2022/09/20 01:53:45;;;;;;;2.67;0.93;;;;;;;9.72;64.52;97738.97;4907919;28;20230;-78
2022/09/20 01:56:35;;;;;;;2.50;0.80;;;;;;;9.72;64.43;97738.97;4908238;28;20618;-78
2022/09/20 01:59:34;;;;;;;1.80;0.90;;;;;;;9.64;64.31;97739.28;4911633;28;20744;-78
2022/09/20 02:02:04;;;;;;;1.70;0.80;;;;;;;9.85;63.52;97741.38;4955094;28;20203;-78
2022/09/20 02:04:42;;;;;;;3.40;1.25;;;;;;;9.70;63.73;97743.59;4951187;28;20183;-78
2022/09/20 02:07:26;;;;;;;2.88;0.70;;;;;;;9.76;63.50;97740.09;4960398;28;20262;-78
2022/09/20 02:10:04;;;;;;;2.13;1.10;;;;;;;9.59;63.83;97739.16;4962958;28;20290;-78
2022/09/20 02:12:53;;;;;;;4.25;1.05;;;;;;;9.34;64.34;97733.13;4934607;28;20203;-78
2022/09/20 02:15:27;;;;;;;2.22;1.08;;;;;;;9.45;63.96;97739.38;4921431;28;20214;-78
2022/09/20 02:18:17;;;;;;;3.70;1.25;;;;;;;9.42;63.81;97744.22;4952365;28;20281;-78
2022/09/20 02:20:45;;;;;;;1.92;0.82;;;;;;;9.45;63.63;97741.97;4946010;28;20181;-78
2022/09/20 02:23:37;;;;;;;3.15;0.90;;;;;;;9.33;63.70;97733.34;4953660;28;20210;-78
2022/09/20 02:26:50;;;;;;;1.63;0.98;;;;;;;9.09;64.66;97732.47;4943402;28;20564;-78
2022/09/20 02:29:41;;;;;;;1.15;0.80;;;;;;;8.97;65.14;97740.22;4935237;28;20410;-78
2022/09/20 02:32:20;;;;;;;3.72;1.13;;;;;;;9.07;64.85;97744.91;4962949;28;20086;-78
2022/09/20 02:34:50;;;;;;;1.67;0.85;;;;;;;9.23;64.43;97744.28;4955730;28;20215;-78
2022/09/20 02:37:44;;;;;;;1.95;1.15;;;;;;;9.23;63.86;97746.09;4944915;28;20206;-78
2022/09/20 02:40:36;;;;;;;3.05;1.42;;;;;;;9.15;63.84;97745.38;4956269;28;20361;-78
2022/09/20 02:43:25;;;;;;;1.67;0.90;;;;;;;8.94;65.17;97751.03;4962849;28;20632;-78
2022/09/20 02:46:17;;;;;;;3.08;1.00;;;;;;;9.03;64.64;97754.13;4956781;28;20121;-78
2022/09/20 02:48:57;;;;;;;1.58;0.98;;;;;;;9.00;64.80;97752.78;4963160;28;20210;-78
2022/09/20 02:51:34;;;;;;;3.00;1.10;;;;;;;9.07;65.12;97750.09;4960387;28;20362;-78
2022/09/20 02:54:31;;;;;;;1.27;1.05;;;;;;;8.99;66.66;97754.56;4964267;28;20258;-78
2022/09/20 02:57:24;;;;;;;3.20;1.23;;;;;;;9.11;66.44;97759.03;4952663;28;20158;-78
2022/09/20 02:59:56;;;;;;;3.92;1.58;;;;;;;9.19;65.95;97750.94;4959351;28;20175;-78
2022/09/20 03:02:26;;;;;;;2.63;1.50;;;;;;;9.34;65.54;97753.13;4945552;28;20336;-78
2022/09/20 03:05:18;;;;;;;2.72;1.23;;;;;;;9.33;66.36;97757.53;4952310;28;20585;-78
2022/09/20 03:08:00;;;;;;;3.28;1.00;;;;;;;9.32;66.88;97760.34;4947313;28;20202;-78
2022/09/20 03:10:45;;;;;;;2.10;1.05;;;;;;;9.43;66.70;97757.00;4946775;28;20714;-78
2022/09/20 03:13:25;;;;;;;4.60;1.60;;;;;;;9.45;66.39;97754.97;4941729;28;20669;-78
2022/09/20 03:16:01;;;;;;;3.08;2.05;;;;;;;9.56;66.30;97762.00;4959712;28;20179;-78
2022/09/20 03:19:12;;;;;;;6.38;5.40;;;;;;;9.44;67.29;97758.59;4947509;28;20168;-78
2022/09/20 03:21:54;;;;;;;5.50;5.10;;;;;;;9.54;66.29;97758.84;4945333;28;20770;-78
2022/09/20 03:24:41;;;;;;;4.32;4.03;;;;;;;9.63;66.40;97759.31;4961687;28;20777;-78
2022/09/20 03:27:19;;;;;;;6.13;3.67;;;;;;;9.77;66.06;97753.88;4961921;28;20152;-78
2022/09/20 03:29:58;;;;;;;4.78;3.75;;;;;;;9.79;65.85;97755.25;4961188;28;20203;-78
2022/09/20 03:32:33;;;;;;;4.25;3.70;;;;;;;9.77;66.50;97759.88;4961423;28;20698;-78
2022/09/20 03:35:23;;;;;;;3.03;2.38;;;;;;;9.83;66.80;97760.78;4952474;28;20190;-78
2022/09/20 03:38:10;;;;;;;4.13;2.28;;;;;;;9.94;66.20;97763.41;4962591;28;20251;-78
2022/09/20 03:40:54;;;;;;;3.30;2.40;;;;;;;10.22;65.34;97759.34;4959454;28;20211;-78
2022/09/20 03:43:32;;;;;;;2.38;1.35;;;;;;;10.19;65.20;97761.59;4959757;28;20204;-78
2022/09/20 03:46:28;;;;;;;2.45;1.00;;;;;;;10.07;65.26;97748.59;4941114;28;20322;-78
2022/09/20 03:48:56;;;;;;;;;;;;;;;9.92;66.01;97749.84;4936413;28;20161;-78
2022/09/20 03:51:34;;;;;;;2.22;1.35;;;;;;;9.94;66.07;97753.00;4951795;28;20240;-78
2022/09/20 03:54:18;;;;;;;4.30;1.15;;;;;;;9.88;67.00;97738.28;4965523;28;20274;-78
2022/09/20 03:57:05;;;;;;;5.15;2.28;;;;;;;9.88;66.39;97759.09;4959150;28;20168;-78
2022/09/20 03:59:36;;;;;;;1.63;1.05;;;;;;;10.01;65.77;97758.09;4960599;28;20242;-78
2022/09/20 04:02:13;;;;;;;3.03;1.30;;;;;;;9.98;65.27;97757.75;4967805;28;20664;-77
2022/09/20 04:04:57;;;;;;;2.42;1.10;;;;;;;9.94;66.05;97763.41;4954703;28;20189;-78
2022/09/20 04:07:50;;;;;;;2.33;1.05;;;;;;;9.74;66.54;97755.91;4961013;28;20282;-78
2022/09/20 04:10:27;;;;;;;3.28;1.20;;;;;;;9.84;66.58;97744.97;4960937;28;20649;-78
2022/09/20 04:13:16;;;;;;;2.60;1.13;;;;;;;9.90;66.24;97754.47;4934766;28;20700;-78
2022/09/20 04:15:42;;;;;;;1.58;1.10;;;;;;;10.04;65.42;97754.25;4955842;28;20138;-78
2022/09/20 04:18:26;;;;;;;1.17;1.08;;;;;;;10.00;65.65;97753.13;4963803;28;20564;-78
2022/09/20 04:21:07;;;;;;;2.53;0.90;;;;;;;9.79;66.36;97750.06;4966613;28;20191;-78
2022/09/20 04:23:58;;;;;;;2.35;1.10;;;;;;;9.92;65.66;97755.03;4940851;28;20198;-78
2022/09/20 04:26:29;;;;;;;2.05;1.00;;;;;;;9.94;65.49;97753.00;4924074;28;20279;-78
2022/09/20 04:29:14;;;;;;;2.63;1.00;;;;;;;9.84;65.60;97757.97;4954203;28;20238;-78
2022/09/20 04:32:15;;;;;;;1.58;0.93;;;;;;;9.70;66.51;97760.00;4938698;28;20188;-78
2022/09/20 04:37:52;;;;;;;3.38;1.17;;;;;;;10.02;65.17;97758.88;4958783;28;20286;-78
2022/09/20 04:40:39;;;;;;;1.92;1.05;;;;;;;9.85;65.48;97762.16;4947113;28;20182;-78
2022/09/20 04:44:03;;;;;;;4.22;1.35;;;;;;;9.66;66.73;97763.25;4966544;28;20272;-78
2022/09/20 04:47:04;;;;;;;1.67;1.08;;;;;;;9.71;66.56;97765.97;4939432;28;20283;-78
2022/09/20 04:49:58;;;;;;;2.95;1.38;;;;;;;9.69;66.82;97768.78;4919051;28;20210;-78
2022/09/20 04:52:57;;;;;;;3.80;1.27;;;;;;;9.91;66.05;97769.06;4957521;28;20171;-78
2022/09/20 04:55:51;;;;;;;3.45;1.17;;;;;;;9.91;66.51;97779.47;4956668;28;20294;-78
2022/09/20 04:58:29;;;;;;;2.25;1.05;;;;;;;9.97;66.06;97776.97;4961285;28;20291;-78
2022/09/20 05:01:06;;;;;;;2.28;1.45;;;;;;;9.94;66.43;97783.44;4947601;28;20129;-78
2022/09/20 05:03:50;;;;;;;1.83;1.00;;;;;;;10.03;67.30;97786.50;4961070;28;20175;-78
2022/09/20 05:06:24;;;;;;;2.47;0.90;;;;;;;9.94;67.20;97778.22;4961898;28;20309;-78
2022/09/20 05:09:05;;;;;;;3.38;1.30;;;;;;;9.88;67.49;97798.09;4964143;28;20110;-77
2022/09/20 05:11:51;;;;;;;2.38;1.30;;;;;;;10.05;67.08;97793.03;4956224;28;20557;-78
2022/09/20 05:14:39;;;;;;;2.67;1.25;;;;;;;9.95;66.77;97790.22;4954024;28;20195;-78
2022/09/20 05:17:33;;;;;;;1.58;1.10;;;;;;;9.94;67.96;97794.63;4925260;28;20180;-78
2022/09/20 05:20:00;;;;;;;2.20;1.60;;;;;;;10.15;67.89;97799.50;4955854;28;20264;-78
2022/09/20 05:22:28;;;;;;;2.78;1.30;;;;;;;10.13;67.29;97791.94;4960586;28;20657;-78
2022/09/20 05:25:10;;;;;;;3.45;1.23;;;;;;;10.19;67.46;97798.03;4955098;28;20630;-78
2022/09/20 05:27:53;;;;;;;2.15;1.27;;;;;;;10.28;67.30;97799.28;4959572;28;20298;-78
2022/09/20 05:30:48;;;;;;;1.80;1.10;;;;;;;10.19;67.15;97809.22;4941988;28;20778;-78
2022/09/20 05:33:36;;;;;;;2.80;1.20;;;;;;;10.27;67.16;97811.50;4907681;28;20557;-78
2022/09/20 05:36:12;;;;;;;2.33;1.10;;;;;;;10.38;66.90;97806.53;4961228;28;20189;-78
2022/09/20 05:38:46;;;;;;;1.95;1.10;;;;;;;10.40;66.79;97807.09;4963013;28;20105;-78
2022/09/20 05:41:51;;;;;;;3.45;1.30;;;;;;;10.27;67.04;97810.72;4927261;28;20183;-78
2022/09/20 05:44:22;;;;;;;1.60;1.08;;;;;;;10.42;66.68;97810.31;4894154;28;20212;-78
2022/09/20 05:47:16;;;;;;;4.38;1.60;;;;;;;10.45;66.91;97820.22;4905581;28;20666;-79
2022/09/20 05:49:44;;;;;;;1.73;1.23;;;;;;;10.60;66.01;97823.16;4860338;28;20739;-78
2022/09/20 05:52:21;;;;;;;3.67;1.00;;;;;;;10.59;66.04;97820.78;4904996;28;20278;-78
2022/09/20 05:55:23;;;;;;;5.20;2.10;;;;;;;10.49;66.62;97818.78;4898042;28;20543;-78
2022/09/20 05:58:00;;;;;;;2.17;1.13;;;;;;;10.48;67.09;97819.78;4894264;28;20843;-78
2022/09/20 06:00:29;;;;;;;3.28;2.35;;;;;;;10.55;67.18;97828.28;4903075;28;20908;-78
2022/09/20 06:03:22;;;;;;;2.83;1.15;;;;;;;10.51;67.80;97819.34;4891847;28;20413;-78
2022/09/20 06:05:48;;;;;;;5.47;2.83;;;;;;;10.81;67.62;97823.59;4902313;28;20185;-78
2022/09/20 06:08:38;;;;;;;3.75;2.45;;;;;;;10.67;68.06;97818.63;4917900;28;20658;-77
2022/09/20 06:11:17;;;;;;;4.63;2.20;;;;;;;10.76;67.98;97819.09;4907906;28;20200;-78
2022/09/20 06:14:04;;;;;;;2.58;1.50;;;;;;;10.75;68.15;97814.09;4908320;28;20673;-78
2022/09/20 06:16:50;;;;;;;2.55;1.10;;;;;;;10.90;67.80;97816.22;4904003;28;20671;-78
2022/09/20 06:19:21;;;;;;;4.00;1.83;;;;;;;11.04;67.22;97818.34;4965073;28;20310;-78
2022/09/20 06:21:54;;;;;;;2.50;1.40;;;;;;;11.05;66.24;97825.16;4964577;28;20195;-78
2022/09/20 06:24:22;;;;;;;2.50;1.20;;;;;;;11.06;65.93;97826.72;4948985;28;20163;-78
2022/09/20 06:26:49;;;;;;;4.85;1.27;;;;;;;11.08;65.62;97830.91;4966641;28;20186;-78
2022/09/20 06:29:28;;;;;;;3.72;1.30;;;;;;;10.93;66.52;97828.78;4948631;28;20311;-78
2022/09/20 06:31:53;;;;;;;4.03;2.20;;;;;;;11.14;67.46;97832.56;4932932;28;20101;-78
2022/09/20 06:34:18;;;;;;;9.07;3.92;;;;;;;11.18;67.57;97828.50;4949213;28;20241;-78
2022/09/20 06:42:31;;;;;;;5.90;3.22;;;;;;;11.53;68.61;97836.19;4948196;28;20253;-78
2022/09/20 06:44:57;;;;;;;4.28;2.58;;;;;;;11.67;68.00;97831.47;4949581;28;20300;-78
2022/09/20 06:47:22;;;;;;;5.45;2.28;;;;;;;11.74;68.49;97824.28;4958831;28;20209;-78
2022/09/20 06:49:49;;;;;;;3.70;2.40;;;;;;;11.82;68.58;97825.72;4943446;28;20199;-78
2022/09/20 06:52:16;;;;;;;4.82;2.88;;;;;;;11.87;68.49;97836.22;4967020;28;20198;-78
2022/09/20 06:54:44;;;;;;;5.90;3.50;;;;;;;11.97;68.35;97830.44;4964668;28;20366;-78
2022/09/20 06:57:11;;;;;;;9.60;4.55;;;;;;;12.10;68.90;97834.56;4949106;28;20163;-78
2022/09/20 06:59:37;;;;;;;6.53;3.72;;;;;;;12.22;67.57;97831.84;4958407;28;20280;-78
2022/09/20 07:02:02;;;;;;;3.65;2.13;;;;;;;12.33;67.29;97833.59;4948428;28;20684;-78
2022/09/20 07:04:27;;;;;;;4.43;1.38;;;;;;;12.34;65.74;97827.34;4961428;28;20659;-78
2022/09/20 07:06:59;;;;;;;1.65;1.40;;;;;;;12.27;65.53;97831.91;4965318;28;20175;-78
2022/09/20 07:09:24;;;;;;;2.17;1.33;;;;;;;12.44;65.43;97835.31;4948278;28;20329;-78
2022/09/20 07:11:50;;;;;;;3.90;1.70;;;;;;;12.60;64.87;97832.91;4932214;28;20254;-78
2022/09/20 07:14:16;;;;;;;3.33;1.92;;;;;;;12.49;65.80;97850.25;4960304;28;20420;-78
2022/09/20 07:16:41;;;;;;;3.28;1.80;;;;;;;12.43;65.37;97854.63;4957850;28;20296;-78
2022/09/20 07:19:07;;;;;;;2.85;1.40;;;;;;;12.44;65.48;97856.22;4963282;28;20125;-78
2022/09/20 07:21:32;;;;;;;2.85;1.63;;;;;;;12.51;66.11;97851.59;4957516;28;20176;-78
2022/09/20 07:23:57;;;;;;;4.10;1.80;;;;;;;12.65;66.56;97852.06;4961843;28;20118;-78
2022/09/20 07:26:25;;;;;;;4.53;1.70;;;;;;;12.79;66.02;97852.50;4962636;28;20218;-78
2022/09/20 07:28:51;;;;;;;3.28;1.80;;;;;;;13.07;65.71;97853.38;4932090;28;20732;-78
2022/09/20 07:31:19;;;;;;;6.30;2.00;;;;;;;13.28;64.40;97851.75;4934287;28;20173;-78
2022/09/20 07:33:44;;;;;;;6.75;2.33;;;;;;;13.39;65.34;97850.09;4940728;28;20189;-78
2022/09/20 07:36:13;;;;;;;4.40;2.00;;;;;;;13.55;63.96;97849.19;4935776;28;20375;-78
2022/09/20 07:38:39;;;;;;;3.20;2.88;;;;;;;13.64;64.18;97858.22;4948283;28;20548;-78
2022/09/20 07:41:05;;;;;;;4.65;3.38;;;;;;;13.78;64.36;97863.84;4965112;28;20340;-78
2022/09/20 07:43:31;;;;;;;3.50;2.20;;;;;;;13.77;63.55;97864.09;4936152;28;20298;-78
2022/09/20 07:45:58;;;;;;;4.25;2.25;;;;;;;13.80;63.53;97871.44;4921130;28;20764;-78
2022/09/20 07:48:34;;;;;;;2.85;1.63;;;;;;;13.64;63.77;97867.88;4935390;28;20753;-78
2022/09/20 07:51:05;;;;;;;2.60;1.27;;;;;;;13.72;63.79;97870.03;4965193;28;20285;-78
2022/09/20 07:53:31;;;;;;;7.80;1.98;;;;;;;13.90;63.96;97874.16;4951143;28;20172;-78
2022/09/20 07:56:00;;;;;;;9.95;5.43;;;;;;;14.16;62.19;97863.91;4935095;28;20118;-78
2022/09/20 07:58:27;;;;;;;3.05;1.80;;;;;;;14.29;62.57;97865.28;4937874;28;20604;-78
2022/09/20 08:00:54;;;;;;;4.80;1.92;;;;;;;14.40;62.74;97866.94;4959314;28;20636;-78
2022/09/20 08:03:20;;;;;;;3.50;1.38;;;;;;;14.64;61.98;97864.00;4967386;28;20191;-78
2022/09/20 08:05:45;;;;;;;4.05;1.17;;;;;;;14.85;60.98;97870.13;4956305;28;20214;-78
2022/09/20 08:08:12;;;;;;;4.97;1.15;;;;;;;14.92;60.83;97871.47;4962293;28;20193;-78
2022/09/20 08:10:39;;;;;;;2.63;1.10;;;;;;;15.04;60.87;97871.25;4966855;28;20207;-78
2022/09/20 08:13:05;;;;;;;3.10;1.02;;;;;;;15.12;60.27;97875.22;4966884;28;20284;-78
2022/09/20 08:15:31;;;;;;;3.25;1.15;;;;;;;15.14;60.44;97873.13;4961140;28;20206;-78
2022/09/20 08:17:56;;;;;;;5.50;1.60;;;;;;;15.27;59.87;97882.38;4953991;28;20172;-78
2022/09/20 08:20:22;;;;;;;4.13;1.38;;;;;;;15.27;60.34;97866.66;4961550;28;20169;-78
2022/09/20 08:22:47;;;;;;;3.78;1.15;;;;;;;15.59;59.43;97873.53;4950791;28;20449;-78
2022/09/20 08:25:12;;;;;;;3.05;1.08;;;;;;;15.67;58.91;97876.44;4938406;28;20594;-78
2022/09/20 08:27:38;;;;;;;2.42;0.95;;;;;;;15.73;58.69;97880.66;4934447;28;20172;-78
2022/09/20 08:30:04;;;;;;;5.47;1.13;;;;;;;15.82;58.26;97873.09;4966926;28;20184;-77
2022/09/20 08:32:30;;;;;;;4.70;1.40;;;;;;;15.85;57.90;97877.81;4966043;28;20244;-78
2022/09/20 08:34:55;;;;;;;3.30;0.90;;;;;;;15.97;57.33;97876.78;4956409;28;20281;-78
2022/09/20 08:37:20;;;;;;;3.13;1.20;;;;;;;16.12;56.97;97882.03;4962924;28;20218;-78
2022/09/20 08:39:45;;;;;;;3.33;1.00;;;;;;;16.12;56.62;97873.38;4968589;28;20464;-78
2022/09/20 08:42:24;;;;;;;2.95;1.25;;;;;;;16.04;57.17;97879.91;4946955;28;20326;-78
2022/09/20 08:45:03;;;;;;;6.20;1.10;;;;;;;16.34;56.59;97875.72;4933256;28;20165;-78
2022/09/20 08:47:37;;;;;;;4.45;1.08;;;;;;;16.75;54.97;97889.59;4962527;28;20217;-78
2022/09/20 08:50:06;;;;;;;6.68;2.15;;;;;;;17.15;52.98;97882.69;4960551;28;20351;-78
2022/09/20 08:52:35;;;;;;;3.88;1.50;;;;;;;17.08;53.48;97881.38;4949646;28;20194;-78
2022/09/20 08:55:01;;;;;;;5.95;1.50;;;;;;;17.11;53.40;97886.13;4966182;28;20183;-79
2022/09/20 08:57:32;;;;;;;6.03;2.00;;;;;;;16.79;55.46;97889.84;4942780;28;20203;-79
2022/09/20 09:00:02;;;;;;;5.00;1.52;;;;;;;16.77;53.61;97891.97;4950351;28;20198;-78
2022/09/20 09:02:31;;;;;;;5.05;1.40;;;;;;;16.91;52.84;97893.00;4949311;28;20415;-78
2022/09/20 09:04:57;;;;;;;5.97;0.90;;;;;;;16.95;53.14;97888.78;4945662;28;20654;-78
2022/09/20 09:07:24;;;;;;;4.90;1.88;;;;;;;16.89;54.01;97884.59;4957043;28;20157;-78
2022/09/20 09:09:51;;;;;;;4.35;2.03;;;;;;;16.91;54.30;97893.00;4963459;28;20191;-78
2022/09/20 09:12:23;;;;;;;6.78;4.20;;;;;;;16.84;54.66;97887.25;4965168;28;20645;-78
2022/09/20 09:14:56;;;;;;;4.75;1.58;;;;;;;17.09;53.51;97885.59;4966293;28;20627;-79
2022/09/20 09:17:24;;;;;;;2.92;1.17;;;;;;;17.14;51.95;97886.34;4956827;28;20200;-78
2022/09/20 09:19:51;;;;;;;3.53;0.80;;;;;;;17.24;50.87;97885.53;4941397;28;20257;-78
2022/09/20 09:22:38;;;;;;;8.10;2.10;;;;;;;16.99;52.25;97889.81;4948318;28;20290;-79
2022/09/20 09:25:13;;;;;;;3.28;0.80;;;;;;;17.24;51.49;97893.44;4948843;28;20296;-78
2022/09/20 09:27:51;;;;;;;2.85;1.00;;;;;;;17.15;50.66;97897.66;4964606;28;20164;-79
2022/09/20 09:30:31;;;;;;;2.03;1.35;;;;;;;17.01;50.81;97882.44;4978114;28;20218;-78
2022/09/20 09:33:27;;;;;;;4.75;0.70;;;;;;;17.11;49.80;97883.47;4932756;28;20568;-78
2022/09/20 09:35:56;;;;;;;2.33;0.73;;;;;;;17.47;49.29;97885.97;4944046;28;20576;-78
2022/09/20 09:38:33;;;;;;;3.90;0.73;;;;;;;17.33;49.58;97877.88;4953206;28;20157;-79
2022/09/20 09:41:04;;;;;;;5.45;2.67;;;;;;;17.43;50.27;97877.81;4935383;28;20206;-78
2022/09/20 09:43:34;;;;;;;5.50;2.80;;;;;;;17.66;49.81;97886.88;4962798;28;20669;-79
2022/09/20 09:46:36;;;;;;;4.07;1.55;;;;;;;17.25;50.23;97881.84;4923169;28;20379;-78
2022/09/20 09:49:15;;;;;;;5.07;2.15;;;;;;;17.66;48.68;97886.88;4911252;28;20431;-78
2022/09/20 09:52:00;;;;;;;11.98;5.88;;;;;;;17.21;49.63;97878.97;4943401;28;20288;-79
2022/09/20 09:54:28;;;;;;;4.85;1.90;;;;;;;17.30;50.75;97879.19;4933670;28;20220;-79
2022/09/20 09:57:22;;;;;;;6.00;1.30;;;;;;;17.61;49.90;97884.28;4908534;28;20734;-78
2022/09/20 10:00:05;;;;;;;3.35;0.70;;;;;;;18.25;47.99;97879.13;4885989;28;20296;-78
2022/09/20 10:03:04;;;;;;;4.63;1.35;;;;;;;18.19;48.24;97874.97;4922226;28;20736;-77
2022/09/20 10:05:38;;;;;;;3.80;1.00;;;;;;;18.44;47.82;97869.47;4917162;28;20193;-79
2022/09/20 10:08:10;;;;;;;3.38;0.90;;;;;;;18.58;46.88;97864.34;4914455;28;20117;-78
2022/09/20 10:11:00;;;;;;;5.82;0.70;;;;;;;18.63;45.34;97860.88;4901153;28;20202;-76
2022/09/20 10:13:32;;;;;;;3.50;1.33;;;;;;;18.93;44.35;97870.31;4937812;28;20316;-77
2022/09/20 10:16:13;;;;;;;4.65;0.55;;;;;;;18.49;45.75;97861.50;4911217;28;20287;-77
2022/09/20 10:18:53;;;;;;;3.03;0.70;;;;;;;18.93;45.83;97865.03;4917267;28;20284;-77
2022/09/20 10:21:30;;;;;;;2.30;1.00;;;;;;;18.68;47.30;97856.31;4910765;28;20320;-77
2022/09/20 10:24:08;;;;;;;3.95;1.23;;;;;;;18.55;46.86;97869.38;4949787;28;20352;-77
2022/09/20 10:26:52;;;;;;;4.38;1.52;;;;;;;18.68;47.42;97860.81;4943365;28;20194;-77
2022/09/20 10:29:25;;;;;;;2.63;0.52;;;;;;;18.92;44.57;97860.84;4965216;28;20668;-77
2022/09/20 10:32:15;;;;;;;2.53;0.75;;;;;;;19.14;43.80;97857.69;4966402;28;20480;-77
2022/09/20 10:34:44;;;;;;;3.50;0.65;;;;;;;19.31;44.60;97859.81;4964922;28;20306;-77
2022/09/20 10:37:35;;;;;;;2.17;0.70;;;;;;;18.77;44.89;97867.03;4952347;28;20583;-77
2022/09/20 10:43:37;;;;;;;2.10;0.65;;;;;;;18.43;44.89;97853.94;4958231;28;20218;-77
2022/09/20 10:46:16;;;;;;;2.13;1.10;;;;;;;18.64;45.52;97852.66;4946168;28;20335;-77
2022/09/20 10:48:51;;;;;;;2.95;0.60;;;;;;;18.39;43.86;97845.78;4943514;28;20178;-77
2022/09/20 10:52:01;;;;;;;2.95;0.60;;;;;;;18.55;44.32;97856.19;4926671;28;20202;-77
2022/09/20 10:54:41;;;;;;;1.33;0.65;;;;;;;18.15;44.59;97851.03;4958975;28;20752;-77
2022/09/20 10:57:28;;;;;;;2.65;1.08;;;;;;;18.82;43.79;97853.81;4952668;28;20021;-76
2022/09/20 11:00:22;;;;;;;2.78;0.57;;;;;;;19.13;40.40;97857.97;4952972;28;20029;-77
2022/09/20 11:03:14;;;;;;;1.25;0.40;;;;;;;19.35;39.53;97850.28;4928935;28;20277;-77
2022/09/20 11:06:16;;;;;;;2.55;0.85;;;;;;;19.84;40.83;97858.84;4941189;28;20083;-77
2022/09/20 11:08:42;;;;;;;1.77;0.50;;;;;;;20.56;36.29;97855.81;4965931;28;20257;-77
2022/09/20 11:11:29;;;;;;;2.67;0.57;;;;;;;20.85;35.29;97857.41;4951533;28;20207;-77
2022/09/20 11:14:03;;;;;;;2.10;0.60;;;;;;;20.76;36.07;97862.59;4938903;28;20225;-77
2022/09/20 11:16:35;;;;;;;2.28;0.70;;;;;;;19.95;39.64;97867.41;4946271;28;20219;-77
2022/09/20 11:19:25;;;;;;;3.47;0.60;;;;;;;19.68;39.69;97862.78;4945230;28;20165;-77
2022/09/20 11:21:57;;;;;;;2.47;0.63;;;;;;;19.18;41.88;97863.94;4954132;28;20275;-77
2022/09/20 11:24:38;;;;;;;1.40;0.65;;;;;;;18.63;42.16;97852.94;4968112;28;20188;-77
2022/09/20 11:27:11;;;;;;;2.30;0.60;;;;;;;18.82;42.71;97864.38;4951803;28;20212;-77
2022/09/20 11:29:54;;;;;;;5.63;0.82;;;;;;;17.91;44.74;97872.03;4967913;28;20574;-77
2022/09/20 11:32:24;;;;;;;3.20;0.60;;;;;;;17.94;44.84;97866.19;4912384;28;20203;-77
2022/09/20 11:34:56;;;;;;;2.78;0.95;;;;;;;18.36;44.35;97867.44;4950802;28;20214;-77
2022/09/20 11:37:24;;;;;;;2.53;0.80;;;;;;;17.94;44.92;97866.19;4967444;28;20238;-77
2022/09/20 11:39:54;;;;;;;2.90;0.70;;;;;;;18.08;44.47;97856.59;4957019;28;20289;-76
2022/09/20 11:42:33;;;;;;;2.25;0.65;;;;;;;18.18;44.72;97868.94;4941907;28;20139;-77
2022/09/20 11:44:58;;;;;;;2.13;0.65;;;;;;;18.24;44.64;97859.13;4956024;28;20637;-76
2022/09/20 11:47:32;;;;;;;1.85;0.90;;;;;;;18.14;44.28;97867.88;4966776;28;20210;-77
2022/09/20 11:50:07;;;;;;;2.40;0.70;;;;;;;18.19;43.84;97864.44;4958170;28;20587;-77
2022/09/20 11:52:59;;;;;;;3.55;0.90;;;;;;;18.29;43.76;97869.63;4957957;28;20228;-77
2022/09/20 11:55:32;;;;;;;4.22;2.10;;;;;;;18.59;41.95;97865.09;4966613;28;20344;-77
2022/09/20 11:58:01;;;;;;;2.83;1.58;;;;;;;18.45;42.86;97863.13;4951053;28;20633;-77
2022/09/20 12:00:33;;;;;;;1.17;0.73;;;;;;;18.43;43.27;97861.84;4965284;28;20274;-77
2022/09/20 12:02:59;;;;;;;1.85;1.17;;;;;;;18.71;43.87;97863.66;4962547;28;20206;-77
2022/09/20 12:05:36;;;;;;;1.77;1.05;;;;;;;18.76;43.51;97862.03;4967251;28;20202;-77
2022/09/20 12:08:04;;;;;;;2.05;0.70;;;;;;;18.83;44.10;97860.69;4960703;28;20276;-77
2022/09/20 12:10:36;;;;;;;3.15;0.60;;;;;;;18.79;43.13;97859.63;4950961;28;20340;-76
2022/09/20 12:13:20;;;;;;;2.17;0.60;;;;;;;18.65;43.79;97853.44;4949402;28;20746;-77
2022/09/20 12:16:03;;;;;;;1.52;0.75;;;;;;;18.84;44.22;97856.19;4967207;28;20530;-77
2022/09/20 12:18:35;;;;;;;2.42;0.90;;;;;;;19.25;44.02;97853.81;4966575;28;20279;-77
2022/09/20 12:21:06;;;;;;;1.73;0.60;;;;;;;19.46;41.90;97859.63;4949967;28;20120;-77
2022/09/20 12:23:41;;;;;;;1.60;0.80;;;;;;;19.22;40.97;97862.31;4939542;28;20292;-77
2022/09/20 12:26:21;;;;;;;1.00;0.77;;;;;;;19.15;39.51;97851.31;4968573;28;20704;-77
2022/09/20 12:28:51;;;;;;;2.10;0.63;;;;;;;18.90;41.35;97847.13;4950864;28;20249;-77
2022/09/20 12:31:24;;;;;;;2.40;0.60;;;;;;;19.18;39.53;97840.19;4950516;28;20191;-76
2022/09/20 12:33:59;;;;;;;1.20;0.55;;;;;;;19.19;36.74;97841.78;4940749;28;20190;-77
2022/09/20 12:36:27;;;;;;;2.00;0.50;;;;;;;19.13;38.51;97837.63;4968679;28;20545;-78